sensor_id;sensor_type;location;lat;lon;timestamp;pressure;altitude;pressure_sealevel;temperature;humidity
77086;BME280;66014;53.134;18.006;2024-02-28T00:01:17;101190.09;;;7.19;90.72
77086;BME280;66014;53.134;18.006;2024-02-28T00:03:47;101185.85;;;7.19;90.65
77086;BME280;66014;53.134;18.006;2024-02-28T00:06:16;101186.05;;;7.19;90.65
77086;BME280;66014;53.134;18.006;2024-02-28T00:08:43;101185.21;;;7.19;90.62
77086;BME280;66014;53.134;18.006;2024-02-28T00:11:10;101184.58;;;7.18;90.68
77086;BME280;66014;53.134;18.006;2024-02-28T00:13:37;101185.38;;;7.17;90.65
77086;BME280;66014;53.134;18.006;2024-02-28T00:16:03;101183.30;;;7.17;90.71
77086;BME280;66014;53.134;18.006;2024-02-28T00:18:31;101178.73;;;7.16;90.80
77086;BME280;66014;53.134;18.006;2024-02-28T00:20:58;101181.11;;;7.14;90.75
77086;BME280;66014;53.134;18.006;2024-02-28T00:23:25;101179.10;;;7.12;90.79
77086;BME280;66014;53.134;18.006;2024-02-28T00:25:52;101183.83;;;7.11;90.88
77086;BME280;66014;53.134;18.006;2024-02-28T00:28:19;101185.86;;;7.10;90.90
77086;BME280;66014;53.134;18.006;2024-02-28T00:30:52;101188.52;;;7.08;91.05
77086;BME280;66014;53.134;18.006;2024-02-28T00:33:27;101188.66;;;7.07;91.01
77086;BME280;66014;53.134;18.006;2024-02-28T00:35:58;101189.55;;;7.07;91.16
77086;BME280;66014;53.134;18.006;2024-02-28T00:38:25;101197.49;;;7.06;91.11
77086;BME280;66014;53.134;18.006;2024-02-28T00:40:55;101201.82;;;7.06;91.13
77086;BME280;66014;53.134;18.006;2024-02-28T00:43:22;101199.14;;;7.06;91.18
77086;BME280;66014;53.134;18.006;2024-02-28T00:45:49;101198.44;;;7.06;91.29
77086;BME280;66014;53.134;18.006;2024-02-28T00:48:15;101194.96;;;7.05;91.33
77086;BME280;66014;53.134;18.006;2024-02-28T00:50:43;101195.70;;;7.05;91.24
77086;BME280;66014;53.134;18.006;2024-02-28T00:53:09;101193.55;;;7.03;91.38
77086;BME280;66014;53.134;18.006;2024-02-28T00:55:36;101192.52;;;7.03;91.41
77086;BME280;66014;53.134;18.006;2024-02-28T00:58:02;101191.20;;;7.02;91.41
77086;BME280;66014;53.134;18.006;2024-02-28T01:00:29;101192.27;;;7.00;91.48
77086;BME280;66014;53.134;18.006;2024-02-28T01:02:56;101190.56;;;6.98;91.55
77086;BME280;66014;53.134;18.006;2024-02-28T01:05:22;101191.80;;;6.98;91.72
77086;BME280;66014;53.134;18.006;2024-02-28T01:07:49;101193.10;;;6.97;91.72
77086;BME280;66014;53.134;18.006;2024-02-28T01:10:15;101190.02;;;6.96;91.81
77086;BME280;66014;53.134;18.006;2024-02-28T01:12:43;101187.02;;;6.96;91.78
77086;BME280;66014;53.134;18.006;2024-02-28T01:15:10;101185.20;;;6.97;91.77
77086;BME280;66014;53.134;18.006;2024-02-28T01:17:37;101178.73;;;6.98;91.85
77086;BME280;66014;53.134;18.006;2024-02-28T01:20:04;101173.56;;;6.98;91.79
77086;BME280;66014;53.134;18.006;2024-02-28T01:22:31;101166.23;;;6.97;91.88
77086;BME280;66014;53.134;18.006;2024-02-28T01:24:58;101164.42;;;6.98;92.01
77086;BME280;66014;53.134;18.006;2024-02-28T01:27:24;101163.04;;;7.00;92.10
77086;BME280;66014;53.134;18.006;2024-02-28T01:29:51;101169.47;;;7.01;92.14
77086;BME280;66014;53.134;18.006;2024-02-28T01:32:19;101175.02;;;7.02;92.10
77086;BME280;66014;53.134;18.006;2024-02-28T01:34:49;101184.69;;;7.00;92.11
77086;BME280;66014;53.134;18.006;2024-02-28T01:37:20;101187.02;;;6.92;92.11
77086;BME280;66014;53.134;18.006;2024-02-28T01:39:48;101193.45;;;6.84;92.14
77086;BME280;66014;53.134;18.006;2024-02-28T01:42:15;101194.28;;;6.81;92.36
77086;BME280;66014;53.134;18.006;2024-02-28T01:44:46;101196.14;;;6.79;92.47
77086;BME280;66014;53.134;18.006;2024-02-28T01:47:15;101202.31;;;6.79;92.39
77086;BME280;66014;53.134;18.006;2024-02-28T01:49:44;101204.23;;;6.76;92.13
77086;BME280;66014;53.134;18.006;2024-02-28T01:52:12;101201.98;;;6.71;92.31
77086;BME280;66014;53.134;18.006;2024-02-28T01:54:41;101204.86;;;6.69;92.36
77086;BME280;66014;53.134;18.006;2024-02-28T01:57:09;101205.04;;;6.67;92.36
77086;BME280;66014;53.134;18.006;2024-02-28T01:59:37;101200.21;;;6.68;92.49
77086;BME280;66014;53.134;18.006;2024-02-28T02:02:04;101200.60;;;6.69;92.49
77086;BME280;66014;53.134;18.006;2024-02-28T02:04:30;101201.25;;;6.72;92.35
77086;BME280;66014;53.134;18.006;2024-02-28T02:06:57;101201.77;;;6.74;92.21
77086;BME280;66014;53.134;18.006;2024-02-28T02:09:25;101204.50;;;6.77;91.97
77086;BME280;66014;53.134;18.006;2024-02-28T02:12:02;101208.93;;;6.78;91.93
77086;BME280;66014;53.134;18.006;2024-02-28T02:14:30;101205.14;;;6.79;91.76
77086;BME280;66014;53.134;18.006;2024-02-28T02:16:59;101203.98;;;6.83;91.97
77086;BME280;66014;53.134;18.006;2024-02-28T02:19:26;101204.73;;;6.84;91.97
77086;BME280;66014;53.134;18.006;2024-02-28T02:21:57;101201.55;;;6.86;91.91
77086;BME280;66014;53.134;18.006;2024-02-28T02:24:24;101201.41;;;6.87;92.00
77086;BME280;66014;53.134;18.006;2024-02-28T02:27:01;101200.88;;;6.89;91.93
77086;BME280;66014;53.134;18.006;2024-02-28T02:29:29;101198.15;;;6.92;91.86
77086;BME280;66014;53.134;18.006;2024-02-28T02:31:56;101200.48;;;6.93;91.67
77086;BME280;66014;53.134;18.006;2024-02-28T02:34:23;101196.70;;;6.94;91.61
77086;BME280;66014;53.134;18.006;2024-02-28T02:36:50;101194.16;;;6.95;91.62
77086;BME280;66014;53.134;18.006;2024-02-28T02:39:28;101189.34;;;6.94;91.60
77086;BME280;66014;53.134;18.006;2024-02-28T02:41:55;101191.77;;;6.92;91.69
77086;BME280;66014;53.134;18.006;2024-02-28T02:44:24;101191.10;;;6.92;91.78
77086;BME280;66014;53.134;18.006;2024-02-28T02:46:51;101187.66;;;6.91;92.01
77086;BME280;66014;53.134;18.006;2024-02-28T02:49:18;101186.64;;;6.90;92.13
77086;BME280;66014;53.134;18.006;2024-02-28T02:51:47;101184.05;;;6.90;92.20
77086;BME280;66014;53.134;18.006;2024-02-28T02:54:14;101177.77;;;6.87;92.09
77086;BME280;66014;53.134;18.006;2024-02-28T02:56:41;101175.16;;;6.85;92.28
77086;BME280;66014;53.134;18.006;2024-02-28T02:59:12;101172.00;;;6.83;92.38
77086;BME280;66014;53.134;18.006;2024-02-28T03:01:38;101173.76;;;6.79;92.41
77086;BME280;66014;53.134;18.006;2024-02-28T03:04:05;101174.06;;;6.78;92.59
77086;BME280;66014;53.134;18.006;2024-02-28T03:06:31;101177.80;;;6.78;92.72
77086;BME280;66014;53.134;18.006;2024-02-28T03:08:58;101180.49;;;6.77;92.70
77086;BME280;66014;53.134;18.006;2024-02-28T03:11:27;101182.33;;;6.76;92.86
77086;BME280;66014;53.134;18.006;2024-02-28T03:13:55;101183.10;;;6.75;92.89
77086;BME280;66014;53.134;18.006;2024-02-28T03:16:24;101183.27;;;6.75;92.84
77086;BME280;66014;53.134;18.006;2024-02-28T03:18:54;101182.77;;;6.75;92.77
77086;BME280;66014;53.134;18.006;2024-02-28T03:21:21;101182.06;;;6.73;92.48
77086;BME280;66014;53.134;18.006;2024-02-28T03:23:48;101180.86;;;6.73;92.47
77086;BME280;66014;53.134;18.006;2024-02-28T03:26:15;101178.69;;;6.74;92.47
77086;BME280;66014;53.134;18.006;2024-02-28T03:28:42;101175.65;;;6.74;92.37
77086;BME280;66014;53.134;18.006;2024-02-28T03:31:10;101176.34;;;6.74;92.32
77086;BME280;66014;53.134;18.006;2024-02-28T03:33:36;101178.42;;;6.74;92.28
77086;BME280;66014;53.134;18.006;2024-02-28T03:36:03;101180.00;;;6.75;92.29
77086;BME280;66014;53.134;18.006;2024-02-28T03:38:30;101181.50;;;6.74;92.16
77086;BME280;66014;53.134;18.006;2024-02-28T03:40:56;101179.95;;;6.74;92.19
77086;BME280;66014;53.134;18.006;2024-02-28T03:43:23;101178.64;;;6.72;91.99
77086;BME280;66014;53.134;18.006;2024-02-28T03:45:50;101180.77;;;6.72;91.91
77086;BME280;66014;53.134;18.006;2024-02-28T03:48:16;101178.94;;;6.71;91.96
77086;BME280;66014;53.134;18.006;2024-02-28T03:50:44;101172.80;;;6.70;91.92
77086;BME280;66014;53.134;18.006;2024-02-28T03:53:10;101177.30;;;6.70;91.98
77086;BME280;66014;53.134;18.006;2024-02-28T03:55:37;101183.45;;;6.70;91.95
77086;BME280;66014;53.134;18.006;2024-02-28T03:58:13;101183.20;;;6.69;91.89
77086;BME280;66014;53.134;18.006;2024-02-28T04:00:48;101182.52;;;6.68;91.85
77086;BME280;66014;53.134;18.006;2024-02-28T04:03:16;101181.54;;;6.68;91.87
77086;BME280;66014;53.134;18.006;2024-02-28T04:05:47;101178.80;;;6.67;91.77
77086;BME280;66014;53.134;18.006;2024-02-28T04:08:16;101177.65;;;6.68;91.74
77086;BME280;66014;53.134;18.006;2024-02-28T04:10:57;101185.73;;;6.68;91.73
77086;BME280;66014;53.134;18.006;2024-02-28T04:13:27;101183.03;;;6.67;91.59
77086;BME280;66014;53.134;18.006;2024-02-28T04:16:19;101181.36;;;6.66;91.56
77086;BME280;66014;53.134;18.006;2024-02-28T04:18:51;101183.33;;;6.65;91.71
77086;BME280;66014;53.134;18.006;2024-02-28T04:21:32;101182.59;;;6.66;91.66
77086;BME280;66014;53.134;18.006;2024-02-28T04:23:59;101188.85;;;6.65;91.66
77086;BME280;66014;53.134;18.006;2024-02-28T04:26:26;101184.18;;;6.62;91.53
77086;BME280;66014;53.134;18.006;2024-02-28T04:28:52;101185.98;;;6.62;91.67
77086;BME280;66014;53.134;18.006;2024-02-28T04:31:19;101187.39;;;6.62;91.76
77086;BME280;66014;53.134;18.006;2024-02-28T04:33:46;101189.16;;;6.62;91.76
77086;BME280;66014;53.134;18.006;2024-02-28T04:36:13;101195.76;;;6.59;91.61
77086;BME280;66014;53.134;18.006;2024-02-28T04:38:41;101193.39;;;6.60;91.83
77086;BME280;66014;53.134;18.006;2024-02-28T04:41:08;101196.92;;;6.61;91.91
77086;BME280;66014;53.134;18.006;2024-02-28T04:43:35;101193.59;;;6.63;91.97
77086;BME280;66014;53.134;18.006;2024-02-28T04:46:02;101192.16;;;6.65;91.84
77086;BME280;66014;53.134;18.006;2024-02-28T04:48:29;101193.23;;;6.67;91.77
77086;BME280;66014;53.134;18.006;2024-02-28T04:50:58;101191.83;;;6.69;91.78
77086;BME280;66014;53.134;18.006;2024-02-28T04:53:25;101188.21;;;6.70;91.80
77086;BME280;66014;53.134;18.006;2024-02-28T04:55:52;101186.23;;;6.70;91.87
77086;BME280;66014;53.134;18.006;2024-02-28T04:58:19;101191.60;;;6.69;91.80
77086;BME280;66014;53.134;18.006;2024-02-28T05:00:50;101192.73;;;6.67;91.74
77086;BME280;66014;53.134;18.006;2024-02-28T05:03:29;101196.80;;;6.66;91.87
77086;BME280;66014;53.134;18.006;2024-02-28T05:06:16;101194.58;;;6.66;91.82
77086;BME280;66014;53.134;18.006;2024-02-28T05:08:43;101196.70;;;6.66;91.95
77086;BME280;66014;53.134;18.006;2024-02-28T05:11:09;101195.01;;;6.67;91.99
77086;BME280;66014;53.134;18.006;2024-02-28T05:13:36;101195.92;;;6.68;91.92
77086;BME280;66014;53.134;18.006;2024-02-28T05:16:12;101196.39;;;6.69;91.89
77086;BME280;66014;53.134;18.006;2024-02-28T05:18:45;101197.99;;;6.69;91.93
77086;BME280;66014;53.134;18.006;2024-02-28T05:21:12;101198.57;;;6.68;91.97
77086;BME280;66014;53.134;18.006;2024-02-28T05:23:41;101197.05;;;6.66;91.92
77086;BME280;66014;53.134;18.006;2024-02-28T05:26:08;101195.05;;;6.63;91.88
77086;BME280;66014;53.134;18.006;2024-02-28T05:28:35;101197.98;;;6.60;92.06
77086;BME280;66014;53.134;18.006;2024-02-28T05:31:22;101201.33;;;6.58;92.19
77086;BME280;66014;53.134;18.006;2024-02-28T05:33:56;101205.08;;;6.55;92.24
77086;BME280;66014;53.134;18.006;2024-02-28T05:36:25;101205.60;;;6.51;92.12
77086;BME280;66014;53.134;18.006;2024-02-28T05:38:54;101214.17;;;6.50;92.24
77086;BME280;66014;53.134;18.006;2024-02-28T05:41:21;101212.34;;;6.49;92.29
77086;BME280;66014;53.134;18.006;2024-02-28T05:43:49;101218.13;;;6.49;92.39
77086;BME280;66014;53.134;18.006;2024-02-28T05:46:16;101222.92;;;6.49;92.53
77086;BME280;66014;53.134;18.006;2024-02-28T05:48:45;101225.92;;;6.49;92.38
77086;BME280;66014;53.134;18.006;2024-02-28T05:51:28;101224.30;;;6.47;92.31
77086;BME280;66014;53.134;18.006;2024-02-28T05:53:55;101231.28;;;6.46;92.24
77086;BME280;66014;53.134;18.006;2024-02-28T05:56:21;101235.31;;;6.46;92.32
77086;BME280;66014;53.134;18.006;2024-02-28T05:58:55;101240.95;;;6.47;92.37
77086;BME280;66014;53.134;18.006;2024-02-28T06:01:22;101239.79;;;6.48;92.27
77086;BME280;66014;53.134;18.006;2024-02-28T06:03:50;101243.16;;;6.49;92.43
77086;BME280;66014;53.134;18.006;2024-02-28T06:06:17;101246.63;;;6.52;92.45
77086;BME280;66014;53.134;18.006;2024-02-28T06:08:44;101246.19;;;6.53;92.49
77086;BME280;66014;53.134;18.006;2024-02-28T06:11:10;101252.23;;;6.55;92.53
77086;BME280;66014;53.134;18.006;2024-02-28T06:13:41;101255.64;;;6.56;92.56
77086;BME280;66014;53.134;18.006;2024-02-28T06:16:14;101254.72;;;6.58;92.44
77086;BME280;66014;53.134;18.006;2024-02-28T06:18:45;101253.40;;;6.59;92.49
77086;BME280;66014;53.134;18.006;2024-02-28T06:21:15;101259.56;;;6.61;92.28
77086;BME280;66014;53.134;18.006;2024-02-28T06:23:42;101258.70;;;6.61;92.15
77086;BME280;66014;53.134;18.006;2024-02-28T06:26:10;101259.85;;;6.62;92.12
77086;BME280;66014;53.134;18.006;2024-02-28T06:28:45;101256.52;;;6.63;92.26
77086;BME280;66014;53.134;18.006;2024-02-28T06:31:19;101261.61;;;6.66;92.24
77086;BME280;66014;53.134;18.006;2024-02-28T06:34:02;101263.29;;;6.67;92.10
77086;BME280;66014;53.134;18.006;2024-02-28T06:36:34;101265.06;;;6.68;92.15
77086;BME280;66014;53.134;18.006;2024-02-28T06:39:04;101272.48;;;6.70;92.11
77086;BME280;66014;53.134;18.006;2024-02-28T06:41:31;101272.37;;;6.71;92.08
77086;BME280;66014;53.134;18.006;2024-02-28T06:43:58;101279.28;;;6.73;92.05
77086;BME280;66014;53.134;18.006;2024-02-28T06:46:27;101281.02;;;6.73;92.00
77086;BME280;66014;53.134;18.006;2024-02-28T06:48:54;101279.86;;;6.72;91.87
77086;BME280;66014;53.134;18.006;2024-02-28T06:51:20;101280.48;;;6.72;91.86
77086;BME280;66014;53.134;18.006;2024-02-28T06:53:47;101276.83;;;6.71;92.05
77086;BME280;66014;53.134;18.006;2024-02-28T06:56:13;101274.88;;;6.69;92.15
77086;BME280;66014;53.134;18.006;2024-02-28T06:58:41;101275.11;;;6.69;92.20
77086;BME280;66014;53.134;18.006;2024-02-28T07:01:07;101277.92;;;6.70;92.36
77086;BME280;66014;53.134;18.006;2024-02-28T07:03:34;101284.73;;;6.73;92.37
77086;BME280;66014;53.134;18.006;2024-02-28T07:06:01;101290.03;;;6.75;92.34
77086;BME280;66014;53.134;18.006;2024-02-28T07:08:27;101287.27;;;6.76;92.14
77086;BME280;66014;53.134;18.006;2024-02-28T07:10:54;101292.08;;;6.78;92.15
77086;BME280;66014;53.134;18.006;2024-02-28T07:13:20;101297.41;;;6.79;92.22
77086;BME280;66014;53.134;18.006;2024-02-28T07:15:48;101300.45;;;6.81;92.12
77086;BME280;66014;53.134;18.006;2024-02-28T07:18:16;101298.08;;;6.81;92.03
77086;BME280;66014;53.134;18.006;2024-02-28T07:20:43;101302.60;;;6.82;91.95
77086;BME280;66014;53.134;18.006;2024-02-28T07:30:35;101306.10;;;6.98;91.79
77086;BME280;66014;53.134;18.006;2024-02-28T07:36:16;101317.99;;;7.11;91.38
77086;BME280;66014;53.134;18.006;2024-02-28T07:38:42;101322.74;;;7.17;91.24
77086;BME280;66014;53.134;18.006;2024-02-28T07:41:09;101321.56;;;7.21;91.13
77086;BME280;66014;53.134;18.006;2024-02-28T07:43:35;101321.54;;;7.27;91.07
77086;BME280;66014;53.134;18.006;2024-02-28T07:46:09;101318.11;;;7.32;90.98
77086;BME280;66014;53.134;18.006;2024-02-28T07:48:38;101320.30;;;7.35;90.71
77086;BME280;66014;53.134;18.006;2024-02-28T07:51:08;101317.69;;;7.39;90.66
77086;BME280;66014;53.134;18.006;2024-02-28T07:53:35;101319.79;;;7.43;90.63
77086;BME280;66014;53.134;18.006;2024-02-28T07:56:03;101321.95;;;7.46;90.47
77086;BME280;66014;53.134;18.006;2024-02-28T07:58:32;101321.05;;;7.48;90.30
77086;BME280;66014;53.134;18.006;2024-02-28T08:00:59;101320.66;;;7.48;90.25
77086;BME280;66014;53.134;18.006;2024-02-28T08:03:26;101323.45;;;7.49;90.23
77086;BME280;66014;53.134;18.006;2024-02-28T08:05:52;101320.80;;;7.49;90.17
77086;BME280;66014;53.134;18.006;2024-02-28T08:08:19;101320.11;;;7.48;89.99
77086;BME280;66014;53.134;18.006;2024-02-28T08:10:45;101318.48;;;7.49;89.96
77086;BME280;66014;53.134;18.006;2024-02-28T08:13:16;101318.73;;;7.46;89.80
77086;BME280;66014;53.134;18.006;2024-02-28T08:15:42;101323.54;;;7.46;89.96
77086;BME280;66014;53.134;18.006;2024-02-28T08:18:09;101326.16;;;7.46;90.12
77086;BME280;66014;53.134;18.006;2024-02-28T08:20:38;101325.17;;;7.47;90.10
77086;BME280;66014;53.134;18.006;2024-02-28T08:23:07;101319.51;;;7.49;90.07
77086;BME280;66014;53.134;18.006;2024-02-28T08:25:34;101317.61;;;7.52;90.01
77086;BME280;66014;53.134;18.006;2024-02-28T08:28:00;101317.00;;;7.57;89.88
77086;BME280;66014;53.134;18.006;2024-02-28T08:30:27;101314.60;;;7.60;89.81
77086;BME280;66014;53.134;18.006;2024-02-28T08:32:54;101316.19;;;7.64;89.66
77086;BME280;66014;53.134;18.006;2024-02-28T08:35:20;101320.96;;;7.68;89.57
77086;BME280;66014;53.134;18.006;2024-02-28T08:37:47;101322.50;;;7.70;89.40
77086;BME280;66014;53.134;18.006;2024-02-28T08:40:13;101328.47;;;7.74;89.51
77086;BME280;66014;53.134;18.006;2024-02-28T08:42:40;101331.96;;;7.82;89.26
77086;BME280;66014;53.134;18.006;2024-02-28T08:45:08;101331.41;;;7.87;89.10
77086;BME280;66014;53.134;18.006;2024-02-28T08:47:34;101336.57;;;7.97;89.15
77086;BME280;66014;53.134;18.006;2024-02-28T08:50:01;101334.19;;;8.05;88.99
77086;BME280;66014;53.134;18.006;2024-02-28T08:52:29;101333.69;;;8.12;88.81
77086;BME280;66014;53.134;18.006;2024-02-28T08:54:55;101339.64;;;8.16;88.42
77086;BME280;66014;53.134;18.006;2024-02-28T08:57:22;101336.38;;;8.17;88.32
77086;BME280;66014;53.134;18.006;2024-02-28T08:59:50;101329.10;;;8.17;88.31
77086;BME280;66014;53.134;18.006;2024-02-28T09:02:17;101332.48;;;8.17;88.14
77086;BME280;66014;53.134;18.006;2024-02-28T09:04:43;101344.25;;;8.18;88.31
77086;BME280;66014;53.134;18.006;2024-02-28T09:07:11;101346.39;;;8.19;88.49
77086;BME280;66014;53.134;18.006;2024-02-28T09:09:42;101338.15;;;8.21;88.31
77086;BME280;66014;53.134;18.006;2024-02-28T09:12:09;101343.56;;;8.21;88.17
77086;BME280;66014;53.134;18.006;2024-02-28T09:14:36;101345.47;;;8.22;88.29
77086;BME280;66014;53.134;18.006;2024-02-28T09:17:06;101353.08;;;8.24;88.51
77086;BME280;66014;53.134;18.006;2024-02-28T09:20:06;101353.08;;;8.24;88.41
77086;BME280;66014;53.134;18.006;2024-02-28T09:22:32;101355.89;;;8.24;88.29
77086;BME280;66014;53.134;18.006;2024-02-28T09:24:59;101351.05;;;8.24;88.24
77086;BME280;66014;53.134;18.006;2024-02-28T09:27:26;101355.08;;;8.25;88.35
77086;BME280;66014;53.134;18.006;2024-02-28T09:29:59;101347.62;;;8.29;88.40
77086;BME280;66014;53.134;18.006;2024-02-28T09:32:26;101345.38;;;8.36;88.48
77086;BME280;66014;53.134;18.006;2024-02-28T09:34:52;101349.45;;;8.43;88.58
77086;BME280;66014;53.134;18.006;2024-02-28T09:37:19;101350.15;;;8.48;88.41
77086;BME280;66014;53.134;18.006;2024-02-28T09:39:48;101355.02;;;8.51;88.32
77086;BME280;66014;53.134;18.006;2024-02-28T09:42:15;101354.85;;;8.53;88.20
77086;BME280;66014;53.134;18.006;2024-02-28T09:44:42;101352.10;;;8.57;88.12
77086;BME280;66014;53.134;18.006;2024-02-28T09:47:10;101356.65;;;8.63;87.91
77086;BME280;66014;53.134;18.006;2024-02-28T09:49:37;101361.40;;;8.67;87.80
77086;BME280;66014;53.134;18.006;2024-02-28T09:52:04;101362.17;;;8.70;87.91
77086;BME280;66014;53.134;18.006;2024-02-28T09:54:31;101366.02;;;8.72;87.99
77086;BME280;66014;53.134;18.006;2024-02-28T09:57:01;101366.95;;;8.73;87.66
77086;BME280;66014;53.134;18.006;2024-02-28T09:59:28;101370.21;;;8.75;87.69
77086;BME280;66014;53.134;18.006;2024-02-28T10:01:57;101373.75;;;8.76;87.85
77086;BME280;66014;53.134;18.006;2024-02-28T10:04:26;101372.08;;;8.77;87.70
77086;BME280;66014;53.134;18.006;2024-02-28T10:06:53;101377.08;;;8.77;87.48
77086;BME280;66014;53.134;18.006;2024-02-28T10:09:20;101386.04;;;8.76;87.74
77086;BME280;66014;53.134;18.006;2024-02-28T10:11:46;101390.02;;;8.75;87.62
77086;BME280;66014;53.134;18.006;2024-02-28T10:14:19;101393.75;;;8.73;87.58
77086;BME280;66014;53.134;18.006;2024-02-28T10:17:18;101394.73;;;8.72;87.54
77086;BME280;66014;53.134;18.006;2024-02-28T10:19:45;101390.74;;;8.74;87.69
77086;BME280;66014;53.134;18.006;2024-02-28T10:22:11;101388.51;;;8.78;87.64
77086;BME280;66014;53.134;18.006;2024-02-28T10:24:38;101396.26;;;8.80;87.68
77086;BME280;66014;53.134;18.006;2024-02-28T10:27:05;101401.16;;;8.82;87.86
77086;BME280;66014;53.134;18.006;2024-02-28T10:29:31;101399.35;;;8.82;87.64
77086;BME280;66014;53.134;18.006;2024-02-28T10:32:01;101396.30;;;8.83;87.57
77086;BME280;66014;53.134;18.006;2024-02-28T10:34:30;101401.19;;;8.84;87.60
77086;BME280;66014;53.134;18.006;2024-02-28T10:36:57;101409.27;;;8.84;87.66
77086;BME280;66014;53.134;18.006;2024-02-28T10:39:24;101409.98;;;8.84;87.59
77086;BME280;66014;53.134;18.006;2024-02-28T10:41:52;101409.23;;;8.83;87.45
77086;BME280;66014;53.134;18.006;2024-02-28T10:44:20;101409.55;;;8.81;87.62
77086;BME280;66014;53.134;18.006;2024-02-28T10:46:49;101410.23;;;8.82;87.58
77086;BME280;66014;53.134;18.006;2024-02-28T10:49:16;101404.06;;;8.83;87.67
77086;BME280;66014;53.134;18.006;2024-02-28T10:51:46;101407.11;;;8.85;87.63
77086;BME280;66014;53.134;18.006;2024-02-28T10:54:22;101409.33;;;8.87;87.44
77086;BME280;66014;53.134;18.006;2024-02-28T10:56:54;101409.39;;;8.90;87.23
77086;BME280;66014;53.134;18.006;2024-02-28T10:59:23;101408.77;;;8.93;87.29
77086;BME280;66014;53.134;18.006;2024-02-28T11:01:54;101405.98;;;8.96;87.34
77086;BME280;66014;53.134;18.006;2024-02-28T11:04:21;101405.58;;;8.98;87.09
77086;BME280;66014;53.134;18.006;2024-02-28T11:06:49;101403.81;;;8.98;86.99
77086;BME280;66014;53.134;18.006;2024-02-28T11:09:25;101405.73;;;9.00;87.07
77086;BME280;66014;53.134;18.006;2024-02-28T11:11:53;101404.27;;;9.04;86.96
77086;BME280;66014;53.134;18.006;2024-02-28T11:14:26;101405.68;;;9.08;87.07
77086;BME280;66014;53.134;18.006;2024-02-28T11:17:00;101401.98;;;9.13;86.99
77086;BME280;66014;53.134;18.006;2024-02-28T11:19:29;101401.52;;;9.18;86.91
77086;BME280;66014;53.134;18.006;2024-02-28T11:21:59;101403.35;;;9.23;86.68
77086;BME280;66014;53.134;18.006;2024-02-28T11:24:33;101404.45;;;9.29;86.67
77086;BME280;66014;53.134;18.006;2024-02-28T11:27:03;101404.12;;;9.36;86.71
77086;BME280;66014;53.134;18.006;2024-02-28T11:29:31;101404.00;;;9.42;86.46
77086;BME280;66014;53.134;18.006;2024-02-28T11:31:58;101404.33;;;9.46;86.37
77086;BME280;66014;53.134;18.006;2024-02-28T11:34:25;101408.34;;;9.49;86.28
77086;BME280;66014;53.134;18.006;2024-02-28T11:36:52;101408.45;;;9.49;86.20
77086;BME280;66014;53.134;18.006;2024-02-28T11:39:19;101409.45;;;9.50;86.23
77086;BME280;66014;53.134;18.006;2024-02-28T11:41:47;101405.73;;;9.51;86.23
77086;BME280;66014;53.134;18.006;2024-02-28T11:44:16;101406.73;;;9.56;86.24
77086;BME280;66014;53.134;18.006;2024-02-28T11:46:46;101411.08;;;9.57;85.78
77086;BME280;66014;53.134;18.006;2024-02-28T11:49:12;101414.01;;;9.57;85.60
77086;BME280;66014;53.134;18.006;2024-02-28T11:51:42;101411.10;;;9.56;85.56
77086;BME280;66014;53.134;18.006;2024-02-28T11:54:10;101412.36;;;9.56;85.54
77086;BME280;66014;53.134;18.006;2024-02-28T11:56:38;101417.39;;;9.57;85.55
77086;BME280;66014;53.134;18.006;2024-02-28T11:59:05;101417.15;;;9.60;85.43
77086;BME280;66014;53.134;18.006;2024-02-28T12:01:36;101415.55;;;9.61;85.38
77086;BME280;66014;53.134;18.006;2024-02-28T12:04:04;101416.45;;;9.61;85.26
77086;BME280;66014;53.134;18.006;2024-02-28T12:06:36;101416.54;;;9.62;85.14
77086;BME280;66014;53.134;18.006;2024-02-28T12:09:08;101413.71;;;9.62;85.14
77086;BME280;66014;53.134;18.006;2024-02-28T12:11:36;101418.98;;;9.62;85.01
77086;BME280;66014;53.134;18.006;2024-02-28T12:14:04;101421.17;;;9.63;85.06
77086;BME280;66014;53.134;18.006;2024-02-28T12:16:33;101424.38;;;9.63;85.01
77086;BME280;66014;53.134;18.006;2024-02-28T12:18:59;101425.54;;;9.61;84.79
77086;BME280;66014;53.134;18.006;2024-02-28T12:21:26;101430.67;;;9.57;84.80
77086;BME280;66014;53.134;18.006;2024-02-28T12:23:53;101427.40;;;9.56;85.06
77086;BME280;66014;53.134;18.006;2024-02-28T12:26:22;101422.08;;;9.58;84.96
77086;BME280;66014;53.134;18.006;2024-02-28T12:28:49;101427.59;;;9.61;84.89
77086;BME280;66014;53.134;18.006;2024-02-28T12:31:16;101421.64;;;9.62;84.76
77086;BME280;66014;53.134;18.006;2024-02-28T12:33:42;101422.33;;;9.63;84.69
77086;BME280;66014;53.134;18.006;2024-02-28T12:36:09;101422.88;;;9.66;84.66
77086;BME280;66014;53.134;18.006;2024-02-28T12:38:35;101429.96;;;9.66;84.39
77086;BME280;66014;53.134;18.006;2024-02-28T12:41:02;101428.69;;;9.61;84.26
77086;BME280;66014;53.134;18.006;2024-02-28T12:43:48;101434.88;;;9.58;84.31
77086;BME280;66014;53.134;18.006;2024-02-28T12:46:37;101435.70;;;9.58;84.18
77086;BME280;66014;53.134;18.006;2024-02-28T12:49:10;101432.23;;;9.60;84.28
77086;BME280;66014;53.134;18.006;2024-02-28T12:52:01;101430.20;;;9.63;84.23
77086;BME280;66014;53.134;18.006;2024-02-28T12:54:37;101427.89;;;9.64;84.33
77086;BME280;66014;53.134;18.006;2024-02-28T12:57:17;101427.02;;;9.65;84.39
77086;BME280;66014;53.134;18.006;2024-02-28T12:59:50;101427.27;;;9.66;84.40
77086;BME280;66014;53.134;18.006;2024-02-28T13:02:19;101425.67;;;9.66;84.58
77086;BME280;66014;53.134;18.006;2024-02-28T13:05:01;101427.27;;;9.63;84.38
77086;BME280;66014;53.134;18.006;2024-02-28T13:07:28;101425.98;;;9.56;84.66
77086;BME280;66014;53.134;18.006;2024-02-28T13:09:56;101427.27;;;9.49;84.60